createdAt,value
2022-08-22T00:00:17.767Z,100964.44
2022-08-22T00:02:53.437Z,100892.69
2022-08-22T00:06:09.889Z,100967.19
2022-08-22T00:09:17.491Z,100967.91
2022-08-22T00:12:09.965Z,100970.50
2022-08-22T00:15:41.990Z,100970.88
2022-08-22T00:18:37.677Z,100973.78
2022-08-22T00:21:30.118Z,100971.97
2022-08-22T00:24:25.533Z,100974.03
2022-08-22T00:27:34.188Z,100980.66
2022-08-22T00:30:14.441Z,100978.59
2022-08-22T00:33:21.936Z,100979.31
2022-08-22T00:36:05.234Z,100974.88
2022-08-22T00:38:45.950Z,100975.94
2022-08-22T00:42:04.202Z,100968.78
2022-08-22T00:45:03.118Z,100974.06
2022-08-22T00:47:38.505Z,100972.72
2022-08-22T00:51:07.908Z,100973.06
2022-08-22T00:53:52.922Z,100977.97
2022-08-22T00:57:06.503Z,100980.06
2022-08-22T00:59:59.284Z,100973.59
2022-08-22T01:03:24.529Z,100978.84
2022-08-22T01:06:22.122Z,100982.06
2022-08-22T01:09:43.355Z,100987.47
2022-08-22T01:12:43.708Z,100992.75
2022-08-22T01:15:24.316Z,100989.84
2022-08-22T01:19:03.581Z,100992.38
2022-08-22T01:23:05.093Z,100988.09
2022-08-22T01:26:05.113Z,100994.59
2022-08-22T01:29:18.804Z,100998.47
2022-08-22T01:33:10.150Z,100986.00
2022-08-22T01:36:24.672Z,100987.34
2022-08-22T01:39:38.055Z,100996.31
2022-08-22T01:42:31.719Z,100992.00
2022-08-22T01:45:40.278Z,100983.69
2022-08-22T01:48:27.109Z,100979.75
2022-08-22T01:51:21.059Z,100990.47
2022-08-22T01:54:07.613Z,100984.16
2022-08-22T01:56:45.890Z,100982.47
2022-08-22T01:59:34.053Z,100988.94
2022-08-22T02:03:00.008Z,100993.06
2022-08-22T02:05:37.289Z,100986.94
2022-08-22T02:08:46.237Z,100984.03
2022-08-22T02:11:44.658Z,100982.50
2022-08-22T02:14:36.507Z,100986.44
2022-08-22T02:17:28.724Z,100978.81
2022-08-22T02:20:11.798Z,100978.16
2022-08-22T02:23:04.155Z,100981.22
2022-08-22T02:25:56.727Z,100983.81
2022-08-22T02:29:01.661Z,100986.53
2022-08-22T02:31:41.534Z,100982.63
2022-08-22T02:34:49.311Z,100986.53
2022-08-22T02:37:35.625Z,100986.75
2022-08-22T02:40:41.240Z,100987.25
2022-08-22T02:43:27.387Z,100991.53
2022-08-22T02:46:16.067Z,100998.31
2022-08-22T02:49:15.556Z,101002.72
2022-08-22T02:52:02.163Z,101007.16
2022-08-22T02:54:51.137Z,101007.50
2022-08-22T02:57:45.126Z,101000.38
2022-08-22T03:00:30.749Z,101002.41
2022-08-22T03:03:21.581Z,100995.63
2022-08-22T03:06:02.603Z,100991.41
2022-08-22T03:08:47.333Z,100991.41
2022-08-22T03:11:38.606Z,100997.88
2022-08-22T03:14:43.667Z,101000.75
2022-08-22T03:17:48.267Z,100995.81
2022-08-22T03:20:43.781Z,100995.66
2022-08-22T03:23:52.529Z,101000.06
2022-08-22T03:26:36.867Z,101000.41
2022-08-22T03:29:38.374Z,101005.50
2022-08-22T03:32:23.101Z,100993.78
2022-08-22T03:35:21.983Z,100999.75
2022-08-22T03:37:58.605Z,100999.06
2022-08-22T03:41:15.476Z,101011.28
2022-08-22T03:44:54.968Z,101007.72
2022-08-22T03:48:16.392Z,101013.31
2022-08-22T03:51:04.274Z,101013.00
2022-08-22T03:54:17.457Z,101021.63
2022-08-22T03:57:21.569Z,101017.38
2022-08-22T04:00:35.836Z,101016.38
2022-08-22T04:04:10.581Z,101023.53
2022-08-22T04:07:17.020Z,101015.00
2022-08-22T04:10:44.879Z,101026.06
2022-08-22T04:13:50.962Z,101023.50
2022-08-22T04:17:01.065Z,101024.19
2022-08-22T04:20:10.849Z,101026.06
2022-08-22T04:23:03.904Z,101029.94
2022-08-22T04:26:12.095Z,101027.41
2022-08-22T04:28:58.931Z,101024.19
2022-08-22T04:31:41.488Z,101035.06
2022-08-22T04:34:33.737Z,101035.72
2022-08-22T04:37:23.797Z,101038.94
2022-08-22T04:40:11.357Z,101045.22
2022-08-22T04:42:54.035Z,101044.53
2022-08-22T04:45:47.856Z,101046.91
2022-08-22T04:48:47.895Z,101049.44
2022-08-22T04:51:33.331Z,101045.91
2022-08-22T04:55:03.631Z,101052.66
2022-08-22T04:58:01.494Z,101051.97
2022-08-22T05:00:49.435Z,101049.41
2022-08-22T05:03:23.581Z,101054.31
2022-08-22T05:05:55.611Z,101055.75
2022-08-22T05:08:31.840Z,101057.56
2022-08-22T05:11:05.652Z,101057.38
2022-08-22T05:13:48.339Z,101055.28
2022-08-22T05:16:25.782Z,101053.00
2022-08-22T05:19:06.278Z,101056.16
2022-08-22T05:21:41.075Z,101057.63
2022-08-22T05:24:22.845Z,101063.38
2022-08-22T05:27:05.327Z,101065.91
2022-08-22T05:29:33.602Z,101068.31
2022-08-22T05:32:12.120Z,101070.06
2022-08-22T05:34:46.065Z,101074.53
2022-08-22T05:37:20.509Z,101074.50
2022-08-22T05:39:56.773Z,101069.13
2022-08-22T05:42:37.238Z,101066.63
2022-08-22T05:45:12.243Z,101073.84
2022-08-22T05:47:52.649Z,101070.69
2022-08-22T05:50:43.441Z,101078.69
2022-08-22T05:53:39.654Z,101075.41
2022-08-22T05:56:37.432Z,101077.88
2022-08-22T05:59:35.177Z,101077.00
2022-08-22T06:02:39.010Z,101079.44
2022-08-22T06:05:11.873Z,101086.25
2022-08-22T06:07:50.961Z,101089.56
2022-08-22T06:10:44.733Z,101092.75
2022-08-22T06:13:47.384Z,101097.66
2022-08-22T06:16:29.929Z,101101.78
2022-08-22T06:18:59.161Z,101103.00
2022-08-22T06:21:39.599Z,101113.88
2022-08-22T06:24:16.725Z,101105.94
2022-08-22T06:26:51.053Z,101108.09
2022-08-22T06:29:42.488Z,101108.03
2022-08-22T06:32:44.513Z,101113.63
2022-08-22T06:35:55.620Z,101112.38
2022-08-22T06:38:33.495Z,101110.31
2022-08-22T06:41:08.780Z,101108.03
2022-08-22T06:43:43.928Z,101112.53
2022-08-22T06:46:17.272Z,101116.22
2022-08-22T06:48:46.140Z,101117.06
2022-08-22T06:51:18.932Z,101112.13
2022-08-22T06:53:53.789Z,101113.81
2022-08-22T06:56:29.570Z,101120.22
2022-08-22T06:59:03.022Z,101116.34
2022-08-22T07:02:24.850Z,101115.94
2022-08-22T07:04:52.919Z,101119.47
2022-08-22T07:07:26.877Z,101129.28
2022-08-22T07:09:57.450Z,101130.47
2022-08-22T07:12:37.783Z,101139.34
2022-08-22T07:15:43.173Z,101137.00
2022-08-22T07:18:23.434Z,101146.00
2022-08-22T07:20:57.174Z,101150.44
2022-08-22T07:23:48.032Z,101150.44
2022-08-22T07:26:49.724Z,101141.53
2022-08-22T07:29:48.313Z,101151.06
2022-08-22T07:32:42.019Z,101153.63
2022-08-22T07:35:41.985Z,101152.22
2022-08-22T07:38:43.826Z,101147.38
2022-08-22T07:41:40.658Z,101146.38
2022-08-22T07:44:24.324Z,101149.44
2022-08-22T07:47:08.645Z,101147.31
2022-08-22T07:50:04.859Z,101158.34
2022-08-22T07:52:44.936Z,101150.13
2022-08-22T07:55:28.958Z,101159.72
2022-08-22T07:58:04.552Z,101156.97
2022-08-22T08:00:33.912Z,101156.91
2022-08-22T08:03:09.291Z,101165.47
2022-08-22T08:05:42.986Z,101160.25
2022-08-22T08:08:26.510Z,101161.13
2022-08-22T08:10:59.723Z,101163.84
2022-08-22T08:13:41.170Z,101160.69
2022-08-22T08:16:19.735Z,101167.78
2022-08-22T08:18:52.651Z,101162.69
2022-08-22T08:21:49.334Z,101164.03
2022-08-22T08:24:28.961Z,101161.75
2022-08-22T08:27:34.717Z,101163.19
2022-08-22T08:30:15.698Z,101164.06
2022-08-22T08:32:57.512Z,101150.34
2022-08-22T08:36:03.459Z,101153.44
2022-08-22T08:39:15.667Z,101160.09
2022-08-22T08:42:19.005Z,101150.22
2022-08-22T08:45:33.470Z,101145.00
2022-08-22T08:48:44.818Z,101153.13
2022-08-22T08:51:56.240Z,101144.34
2022-08-22T08:55:21.963Z,101147.25
2022-08-22T08:58:18.061Z,101139.41
2022-08-22T09:01:02.787Z,101147.22
2022-08-22T09:04:22.682Z,101150.53
2022-08-22T09:07:38.908Z,101148.16
2022-08-22T09:10:39.164Z,101144.19
2022-08-22T09:13:37.592Z,101138.34
2022-08-22T09:17:05.489Z,101144.06
2022-08-22T09:20:30.492Z,101146.84
2022-08-22T09:23:33.502Z,101135.28
2022-08-22T09:26:22.828Z,101141.34
2022-08-22T09:29:08.747Z,101138.75
2022-08-22T09:32:33.783Z,101132.63
2022-08-22T09:35:43.948Z,101134.84
2022-08-22T09:38:48.280Z,101129.13
2022-08-22T09:41:37.444Z,101134.31
2022-08-22T09:44:53.601Z,101129.09
2022-08-22T09:47:39.808Z,101128.75
2022-08-22T09:50:24.563Z,101135.19
2022-08-22T09:53:43.719Z,101132.50
2022-08-22T09:56:30.782Z,101119.66
2022-08-22T09:59:22.314Z,101129.09
2022-08-22T10:02:43.601Z,101120.50
2022-08-22T10:05:40.770Z,101127.88
2022-08-22T10:08:38.101Z,101127.53
2022-08-22T10:11:56.025Z,101123.03
2022-08-22T10:15:11.245Z,101118.06
2022-08-22T10:18:05.150Z,101128.72
2022-08-22T10:21:18.999Z,101124.78
2022-08-22T10:24:11.251Z,101125.66
2022-08-22T10:27:01.129Z,101114.25
2022-08-22T10:30:13.298Z,101118.91
2022-08-22T10:33:13.179Z,101109.59
2022-08-22T10:36:11.717Z,101110.25
2022-08-22T10:38:55.386Z,101107.56
2022-08-22T10:41:47.390Z,101105.88
2022-08-22T10:45:37.272Z,101116.38
2022-08-22T10:48:08.999Z,101111.38
2022-08-22T10:50:50.021Z,101107.38
2022-08-22T10:53:46.189Z,101112.22
2022-08-22T10:56:27.623Z,101110.34
2022-08-22T10:59:10.832Z,101106.31
2022-08-22T11:02:17.509Z,101108.06
2022-08-22T11:05:24.151Z,101103.22
2022-08-22T11:08:36.867Z,101105.81
2022-08-22T11:11:32.529Z,101105.41
2022-08-22T11:14:27.420Z,101112.97
2022-08-22T11:17:27.876Z,101105.63
2022-08-22T11:20:28.080Z,101111.78
2022-08-22T11:23:50.979Z,101112.59
2022-08-22T11:26:47.977Z,101110.66
2022-08-22T11:29:55.095Z,101107.66
2022-08-22T11:33:04.484Z,101106.56
2022-08-22T11:35:54.730Z,101106.31
2022-08-22T11:38:56.246Z,101111.69
2022-08-22T11:41:54.073Z,101107.41
2022-08-22T11:44:50.189Z,101121.88
2022-08-22T11:47:31.429Z,101121.69
2022-08-22T11:50:38.656Z,101110.75
2022-08-22T11:53:27.815Z,101129.09
2022-08-22T11:56:36.721Z,101126.34
2022-08-22T11:59:56.174Z,101121.09
2022-08-22T12:03:12.914Z,101122.81
2022-08-22T12:05:54.798Z,101112.81
2022-08-22T12:08:29.345Z,101107.81
2022-08-22T12:11:44.756Z,101112.16
2022-08-22T12:14:54.887Z,101122.44
2022-08-22T12:18:20.136Z,101121.53
2022-08-22T12:21:49.567Z,101119.59
2022-08-22T12:25:14.255Z,101120.91
2022-08-22T12:28:23.411Z,101112.06
2022-08-22T12:31:12.176Z,101111.00
2022-08-22T12:34:14.824Z,101104.63
2022-08-22T12:37:52.235Z,101103.13
2022-08-22T12:41:07.973Z,101108.50
2022-08-22T12:43:50.557Z,101103.72
2022-08-22T12:46:47.366Z,101099.09
2022-08-22T12:49:52.634Z,101085.84
2022-08-22T12:53:24.499Z,101091.75
2022-08-22T12:56:29.327Z,101093.81
2022-08-22T12:59:32.284Z,101098.59
2022-08-22T13:02:23.579Z,101098.28
2022-08-22T13:04:59.373Z,101103.81
2022-08-22T13:07:39.395Z,101098.88
2022-08-22T13:10:17.542Z,101100.56
2022-08-22T13:12:52.707Z,101096.91
2022-08-22T13:15:36.089Z,101105.44
2022-08-22T13:18:29.658Z,101097.97
2022-08-22T13:21:09.399Z,101096.59
2022-08-22T13:23:50.791Z,101095.91
2022-08-22T13:26:34.087Z,101096.75
2022-08-22T13:29:26.179Z,101092.84
2022-08-22T13:32:04.453Z,101093.56
2022-08-22T13:34:47.382Z,101099.03
2022-08-22T13:37:28.622Z,101096.19
2022-08-22T13:40:07.203Z,101096.75
2022-08-22T13:42:50.781Z,101101.56
2022-08-22T13:45:31.310Z,101092.44
2022-08-22T13:48:12.702Z,101091.50
2022-08-22T13:51:17.635Z,101094.03
2022-08-22T13:54:13.786Z,101094.16
2022-08-22T13:57:21.023Z,101097.53
2022-08-22T14:00:48.782Z,101088.00
2022-08-22T14:03:41.094Z,101081.78
2022-08-22T14:06:38.055Z,101088.78
2022-08-22T14:09:37.947Z,101088.13
2022-08-22T14:12:28.730Z,101085.84
2022-08-22T14:15:07.948Z,101082.53
2022-08-22T14:17:48.394Z,101068.84
2022-08-22T14:20:32.218Z,101073.06
2022-08-22T14:23:29.261Z,101076.72
2022-08-22T14:25:57.756Z,101066.84
2022-08-22T14:28:35.696Z,101070.94
2022-08-22T14:31:14.381Z,101079.06
2022-08-22T14:33:57.623Z,101067.34
2022-08-22T14:37:06.199Z,101068.38
2022-08-22T14:39:49.024Z,101078.81
2022-08-22T14:42:30.813Z,101072.66
2022-08-22T14:45:19.457Z,101077.59
2022-08-22T14:48:30.921Z,101077.38
2022-08-22T14:51:10.189Z,101074.00
2022-08-22T14:53:40.415Z,101083.25
2022-08-22T14:56:22.515Z,101074.97
2022-08-22T14:59:39.793Z,101065.53
2022-08-22T15:02:34.577Z,101056.34
2022-08-22T15:05:21.458Z,101061.97
2022-08-22T15:08:05.312Z,101057.22
2022-08-22T15:10:34.313Z,101057.75
2022-08-22T15:13:09.857Z,101067.81
2022-08-22T15:15:53.534Z,101059.28
2022-08-22T15:18:28.773Z,101054.19
2022-08-22T15:21:11.345Z,101050.50
2022-08-22T15:23:47.161Z,101047.19
2022-08-22T15:26:50.435Z,101052.41
2022-08-22T15:29:26.921Z,101048.28
2022-08-22T15:32:03.165Z,101039.69
2022-08-22T15:34:44.559Z,101045.25
2022-08-22T15:37:20.582Z,101036.31
2022-08-22T15:40:27.435Z,101035.09
2022-08-22T15:43:02.506Z,101033.75
2022-08-22T15:45:36.076Z,101038.31
2022-08-22T15:48:09.474Z,101034.56
2022-08-22T15:51:10.155Z,101028.75
2022-08-22T15:54:16.148Z,101039.13
2022-08-22T15:57:10.038Z,101042.38
2022-08-22T15:59:54.130Z,101037.47
2022-08-22T16:02:53.995Z,101036.91
2022-08-22T16:05:55.806Z,101043.72
2022-08-22T16:08:44.169Z,101035.47
2022-08-22T16:11:38.148Z,101038.16
2022-08-22T16:14:50.729Z,101022.94
2022-08-22T16:17:29.553Z,101027.00
2022-08-22T16:20:19.760Z,101028.69
2022-08-22T16:22:58.887Z,101022.94
2022-08-22T16:25:50.230Z,101022.78
2022-08-22T16:28:41.437Z,101018.78
2022-08-22T16:31:35.997Z,101027.13
2022-08-22T16:34:18.727Z,101026.16
2022-08-22T16:37:46.308Z,101023.72
2022-08-22T16:40:26.941Z,101028.59
2022-08-22T16:43:20.341Z,101031.13
2022-08-22T16:45:48.839Z,101032.78
2022-08-22T16:48:39.480Z,101041.06
2022-08-22T16:51:15.155Z,101033.56
2022-08-22T16:54:55.781Z,101041.75
2022-08-22T16:58:06.360Z,101028.53
2022-08-22T17:00:36.189Z,101022.34
2022-08-22T17:03:32.458Z,101028.94
2022-08-22T17:06:28.428Z,101033.25
2022-08-22T17:09:24.671Z,101036.88
2022-08-22T17:12:58.377Z,101033.59
2022-08-22T17:15:51.785Z,101037.09
2022-08-22T17:18:49.429Z,101024.59
2022-08-22T17:21:56.587Z,101027.25
2022-08-22T17:24:40.425Z,101036.59
2022-08-22T17:27:30.331Z,101034.09
2022-08-22T17:30:09.863Z,101031.84
2022-08-22T17:33:19.984Z,101030.78
2022-08-22T17:36:27.100Z,101035.84
2022-08-22T17:39:43.190Z,101034.16
2022-08-22T17:43:01.156Z,101032.91
2022-08-22T17:46:01.793Z,101037.13
2022-08-22T17:48:52.486Z,101034.81
2022-08-22T17:51:43.216Z,101035.22
2022-08-22T17:54:52.516Z,101031.19
2022-08-22T17:57:33.293Z,101035.66
2022-08-22T18:00:30.080Z,101041.75
2022-08-22T18:03:37.623Z,101030.78
2022-08-22T18:06:12.248Z,101041.53
2022-08-22T18:09:16.562Z,101032.88
2022-08-22T18:12:06.606Z,101035.19
2022-08-22T18:15:25.334Z,101038.72
2022-08-22T18:18:18.319Z,101041.66
2022-08-22T18:21:00.586Z,101041.44
2022-08-22T18:26:48.811Z,101045.81
2022-08-22T18:29:41.765Z,101046.84
2022-08-22T18:32:21.004Z,101042.44
2022-08-22T18:35:15.219Z,101036.50
2022-08-22T18:38:20.026Z,101043.63
2022-08-22T18:41:09.532Z,101049.53
2022-08-22T18:43:45.059Z,101048.03
2022-08-22T18:46:52.439Z,101044.03
2022-08-22T18:49:21.978Z,101045.88
2022-08-22T18:52:09.902Z,101048.41
2022-08-22T18:55:39.101Z,101051.31
2022-08-22T18:58:28.116Z,101047.28
2022-08-22T19:01:32.391Z,101053.19
2022-08-22T19:04:34.405Z,101055.88
2022-08-22T19:07:53.729Z,101056.06
2022-08-22T19:11:01.073Z,101058.56
2022-08-22T19:14:18.378Z,101057.75
2022-08-22T19:17:59.575Z,101056.03
2022-08-22T19:20:55.400Z,101059.59
2022-08-22T19:23:43.574Z,101057.06
2022-08-22T19:26:33.493Z,101052.63
2022-08-22T19:29:16.002Z,101053.50
2022-08-22T19:31:52.958Z,101051.09
2022-08-22T19:34:29.141Z,101051.31
2022-08-22T19:37:32.100Z,101053.63
2022-08-22T19:40:48.314Z,101051.88
2022-08-22T19:43:30.141Z,101054.44
2022-08-22T19:46:03.890Z,101044.97
2022-08-22T19:48:48.294Z,101040.13
2022-08-22T19:51:21.123Z,101057.16
2022-08-22T19:54:25.112Z,101051.47
2022-08-22T19:57:46.183Z,101046.63
2022-08-22T20:00:22.704Z,101042.47
2022-08-22T20:03:49.849Z,101040.94
2022-08-22T20:07:00.469Z,101051.69
2022-08-22T20:09:48.683Z,101053.13
2022-08-22T20:12:49.843Z,101045.16
2022-08-22T20:15:25.466Z,101052.09
2022-08-22T20:26:22.256Z,101040.13
2022-08-22T20:28:52.506Z,101038.63
2022-08-22T20:31:27.259Z,101034.00
2022-08-22T20:34:23.150Z,101031.53
2022-08-22T20:39:59.166Z,101044.59
2022-08-22T20:45:18.562Z,101032.84
2022-08-22T20:47:50.737Z,101033.69
2022-08-22T20:50:25.765Z,101028.00
2022-08-22T20:53:20.147Z,101029.34
2022-08-22T20:55:54.955Z,101032.91
2022-08-22T20:58:28.645Z,101033.53
2022-08-22T21:01:00.472Z,101035.03
2022-08-22T21:03:50.616Z,101041.09
2022-08-22T21:06:35.010Z,101038.38
2022-08-22T21:09:40.358Z,101042.34
2022-08-22T21:12:09.474Z,101046.97
2022-08-22T21:17:34.240Z,101038.09
2022-08-22T21:20:23.112Z,101041.25
2022-08-22T21:22:50.683Z,101047.38
2022-08-22T21:25:17.638Z,101046.72
2022-08-22T21:27:49.981Z,101049.66
2022-08-22T21:30:28.158Z,101055.06
2022-08-22T21:32:56.591Z,101041.59
2022-08-22T21:35:32.790Z,101043.72
2022-08-22T21:38:02.118Z,101056.56
2022-08-22T21:40:37.607Z,101051.94
2022-08-22T21:43:34.201Z,101048.34
2022-08-22T21:46:01.154Z,101051.94
2022-08-22T21:48:56.486Z,101045.25
2022-08-22T21:51:45.949Z,101047.31
2022-08-22T21:54:42.239Z,101048.34
2022-08-22T21:57:08.822Z,101051.75
2022-08-22T21:59:51.540Z,101058.25
2022-08-22T22:02:42.396Z,101048.34
2022-08-22T22:05:18.150Z,101051.75
2022-08-22T22:07:47.717Z,101052.38
2022-08-22T22:10:21.012Z,101058.03
2022-08-22T22:12:52.072Z,101061.66
2022-08-22T22:15:25.817Z,101057.44
2022-08-22T22:17:53.573Z,101058.31
2022-08-22T22:20:23.992Z,101055.56
2022-08-22T22:22:51.066Z,101058.50
2022-08-22T22:25:41.034Z,101049.84
2022-08-22T22:28:25.655Z,101057.22
2022-08-22T22:30:53.396Z,101064.56
2022-08-22T22:33:31.543Z,101062.25
2022-08-22T22:36:13.077Z,101061.59
2022-08-22T22:38:41.206Z,101059.25
2022-08-22T22:41:08.805Z,101061.34
2022-08-22T22:43:36.119Z,101058.81
2022-08-22T22:46:03.016Z,101059.66
2022-08-22T22:48:29.858Z,101055.22
2022-08-22T22:50:56.597Z,101054.19
2022-08-22T22:53:37.981Z,101063.63
2022-08-22T22:56:10.529Z,101061.28
2022-08-22T22:58:40.630Z,101057.06
2022-08-22T23:01:22.478Z,101064.84
2022-08-22T23:04:04.869Z,101064.19
2022-08-22T23:06:33.134Z,101066.88
2022-08-22T23:08:59.914Z,101058.03
2022-08-22T23:11:30.380Z,101057.97
2022-08-22T23:13:57.544Z,101069.72
2022-08-22T23:16:28.760Z,101059.00
2022-08-22T23:18:56.572Z,101076.03
2022-08-22T23:21:29.575Z,101066.56
2022-08-22T23:24:00.833Z,101070.13
2022-08-22T23:26:29.709Z,101067.59
2022-08-22T23:28:58.213Z,101065.31
2022-08-22T23:31:34.339Z,101069.31
2022-08-22T23:34:21.609Z,101062.25
2022-08-22T23:36:54.577Z,101073.84
2022-08-22T23:39:25.823Z,101072.16
2022-08-22T23:41:53.355Z,101076.97
2022-08-22T23:44:31.701Z,101071.03
2022-08-22T23:47:00.964Z,101072.94
2022-08-22T23:49:30.100Z,101071.44
2022-08-22T23:51:58.323Z,101073.13
2022-08-22T23:54:26.619Z,101076.91
2022-08-22T23:57:00.687Z,101079.19
2022-08-22T23:59:34.882Z,101070.06
